Time;durP1;ratioP1;P1;durP2;ratioP2;P2;SDS_P1;SDS_P2;PMS_P1;PMS_P2;Temp;Humidity;BMP_temperature;BMP_pressure;BME280_temperature;BME280_humidity;BME280_pressure;Samples;Min_cycle;Max_cycle;Signal;HPM_P1;HPM_P2
2020/12/04 00:01:33;;;;;;;17.43;12.93;;;;;;;2.54;81.16;96434.81;4361299;32;20167;-75
2020/12/04 00:04:05;;;;;;;19.07;14.23;;;;;;;2.58;81.35;96413.63;4360497;32;20179;-76
2020/12/04 00:06:36;;;;;;;19.03;14.17;;;;;;;2.45;82.18;96438.94;4372652;32;20254;-75
2020/12/04 00:09:08;;;;;;;17.87;13.70;;;;;;;2.39;82.66;96444.63;4371924;32;20175;-76
2020/12/04 00:11:40;;;;;;;17.47;13.87;;;;;;;2.39;81.79;96449.81;4362385;32;20659;-76
2020/12/04 00:14:11;;;;;;;18.37;14.10;;;;;;;2.38;81.97;96406.50;4363101;32;20155;-75
2020/12/04 00:16:42;;;;;;;16.67;13.67;;;;;;;2.11;83.58;96383.31;4376039;32;20164;-75
2020/12/04 00:19:14;;;;;;;17.23;13.93;;;;;;;2.34;83.68;96373.78;4375544;32;20147;-76
2020/12/04 00:21:55;;;;;;;20.23;14.80;;;;;;;2.32;83.57;96360.06;4376027;32;20169;-76
2020/12/04 00:24:37;;;;;;;17.90;13.13;;;;;;;2.12;82.16;96332.06;4373703;32;20526;-75
2020/12/04 00:27:09;;;;;;;16.10;12.93;;;;;;;2.36;82.43;96337.19;4370254;32;20160;-75
2020/12/04 00:29:41;;;;;;;19.93;14.87;;;;;;;2.42;81.81;96334.94;4360625;32;20172;-76
2020/12/04 00:32:11;;;;;;;18.40;14.50;;;;;;;2.35;81.64;96344.19;4371204;32;20178;-75
2020/12/04 00:34:44;;;;;;;17.57;14.63;;;;;;;2.32;82.01;96355.69;4365929;32;20602;-76
2020/12/04 00:37:15;;;;;;;16.57;13.17;;;;;;;2.43;81.99;96357.44;4370930;32;20197;-75
2020/12/04 00:39:47;;;;;;;19.07;13.90;;;;;;;2.51;81.58;96360.28;4361518;32;20203;-75
2020/12/04 00:42:20;;;;;;;19.57;14.53;;;;;;;2.50;81.90;96363.84;4363703;32;20152;-76
2020/12/04 00:44:51;;;;;;;20.67;14.90;;;;;;;2.55;81.85;96361.75;4359101;32;20190;-75
2020/12/04 00:47:21;;;;;;;21.07;15.17;;;;;;;2.45;82.18;96342.53;4366931;32;20183;-76
2020/12/04 00:49:52;;;;;;;19.47;14.73;;;;;;;2.41;82.68;96338.50;4362901;32;20160;-74
2020/12/04 00:52:23;;;;;;;18.83;14.63;;;;;;;2.50;82.43;96336.97;4361750;32;20170;-75
2020/12/04 00:54:55;;;;;;;19.70;15.47;;;;;;;2.36;82.37;96324.97;4380978;32;20217;-75
2020/12/04 00:57:26;;;;;;;19.40;15.40;;;;;;;2.30;82.37;96309.84;4376284;32;20167;-75
2020/12/04 00:59:57;;;;;;;17.57;14.20;;;;;;;2.31;82.59;96320.13;4374836;32;20818;-76
2020/12/04 01:02:28;;;;;;;16.97;12.30;;;;;;;2.30;82.33;96321.06;4374480;32;20506;-76
2020/12/04 01:04:59;;;;;;;18.77;15.23;;;;;;;2.39;82.18;96303.91;4376874;32;20178;-75
2020/12/04 01:07:30;;;;;;;20.40;15.03;;;;;;;2.32;82.09;96308.78;4389951;32;20210;-75
2020/12/04 01:10:00;;;;;;;20.17;15.00;;;;;;;2.22;81.72;96296.56;4387308;32;20618;-74
2020/12/04 01:12:32;;;;;;;20.97;14.57;;;;;;;1.89;82.94;96273.09;4386633;32;20285;-75
2020/12/04 01:15:03;;;;;;;18.03;13.97;;;;;;;2.00;83.55;96302.56;4389601;32;20547;-75
2020/12/04 01:17:34;;;;;;;17.83;13.93;;;;;;;1.96;83.65;96295.13;4390698;32;20143;-75
2020/12/04 01:20:07;;;;;;;15.90;13.57;;;;;;;1.81;84.84;96286.69;4389917;32;20190;-75
2020/12/04 01:22:37;;;;;;;16.13;13.03;;;;;;;1.99;84.36;96305.31;4389843;32;20199;-75
2020/12/04 01:25:09;;;;;;;19.10;14.63;;;;;;;1.83;85.35;96278.75;4382628;32;20534;-75
2020/12/04 01:27:41;;;;;;;17.90;13.43;;;;;;;1.71;85.13;96276.13;4379219;32;20476;-75
2020/12/04 01:30:12;;;;;;;20.33;14.07;;;;;;;2.00;84.36;96286.94;4374187;32;20163;-76
2020/12/04 01:32:46;;;;;;;17.03;12.50;;;;;;;2.12;83.80;96270.41;4373528;32;20244;-75
2020/12/04 01:35:18;;;;;;;16.40;12.47;;;;;;;2.15;83.60;96280.59;4374017;32;20173;-75
2020/12/04 01:37:49;;;;;;;19.10;14.27;;;;;;;2.11;83.65;96286.12;4379073;32;20229;-75
2020/12/04 01:40:19;;;;;;;20.50;14.77;;;;;;;1.96;83.08;96276.91;4378010;32;20155;-75
2020/12/04 01:42:52;;;;;;;16.97;13.70;;;;;;;1.88;84.60;96271.44;4379396;32;20159;-76
2020/12/04 01:45:23;;;;;;;17.70;14.20;;;;;;;2.11;84.42;96289.56;4379564;32;20154;-76
2020/12/04 01:47:54;;;;;;;18.70;13.80;;;;;;;2.25;84.41;96278.09;4375039;32;20155;-76
2020/12/04 01:50:26;;;;;;;17.77;13.13;;;;;;;2.28;83.71;96262.22;4383568;32;20155;-76
2020/12/04 01:52:57;;;;;;;15.27;12.00;;;;;;;2.37;83.92;96258.91;4383993;32;20160;-75
2020/12/04 01:55:28;;;;;;;19.13;15.30;;;;;;;2.33;83.27;96257.47;4378407;32;20610;-75
2020/12/04 01:58:03;;;;;;;20.23;14.93;;;;;;;2.41;83.11;96254.28;4384789;32;20167;-76
2020/12/04 02:00:35;;;;;;;20.33;14.80;;;;;;;2.32;83.35;96250.63;4374617;32;20186;-76
2020/12/04 02:03:08;;;;;;;19.83;15.47;;;;;;;2.00;84.85;96244.44;4388515;32;20293;-76
2020/12/04 02:05:44;;;;;;;20.40;14.30;;;;;;;1.96;84.41;96232.62;4378244;32;20510;-76
2020/12/04 02:08:27;;;;;;;17.63;14.07;;;;;;;2.14;83.78;96228.59;4382404;32;20201;-76
2020/12/04 02:11:04;;;;;;;15.77;12.30;;;;;;;2.15;82.65;96218.06;4374434;32;20625;-76
2020/12/04 02:13:36;;;;;;;18.60;13.40;;;;;;;2.27;82.77;96216.28;4374665;32;20189;-75
2020/12/04 02:16:08;;;;;;;14.37;11.57;;;;;;;2.36;82.75;96212.94;4376794;32;20229;-75
2020/12/04 02:18:38;;;;;;;15.90;12.30;;;;;;;2.30;82.57;96221.25;4384700;32;20201;-75
2020/12/04 02:21:11;;;;;;;16.33;13.37;;;;;;;2.29;82.11;96222.19;4378703;32;20528;-76
2020/12/04 02:23:44;;;;;;;16.00;13.00;;;;;;;2.29;81.15;96207.41;4384694;32;20177;-75
2020/12/04 02:26:17;;;;;;;18.17;13.83;;;;;;;2.33;81.62;96218.38;4388196;32;20550;-75
2020/12/04 02:28:48;;;;;;;15.90;12.43;;;;;;;2.14;82.18;96211.19;4373205;32;20234;-74
2020/12/04 02:31:21;;;;;;;17.20;13.30;;;;;;;2.15;82.65;96210.25;4372812;32;20144;-76
2020/12/04 02:33:52;;;;;;;17.30;13.13;;;;;;;1.81;83.54;96207.75;4374291;32;20543;-76
2020/12/04 02:36:25;;;;;;;19.20;13.87;;;;;;;2.00;83.24;96202.78;4373842;32;20576;-76
2020/12/04 02:38:55;;;;;;;18.70;13.83;;;;;;;2.21;83.09;96196.75;4371712;32;20575;-75
2020/12/04 02:41:26;;;;;;;18.80;14.33;;;;;;;2.00;82.09;96192.38;4373385;32;20506;-75
2020/12/04 02:43:56;;;;;;;17.80;13.67;;;;;;;1.79;83.77;96186.22;4388255;32;20257;-76
2020/12/04 02:46:28;;;;;;;19.67;14.13;;;;;;;1.80;84.14;96201.72;4382729;32;20239;-76
2020/12/04 02:48:59;;;;;;;19.80;14.40;;;;;;;1.82;83.99;96199.84;4377865;32;20215;-75
2020/12/04 02:51:32;;;;;;;18.37;13.47;;;;;;;1.92;83.67;96202.56;4376308;32;20447;-76
2020/12/04 02:54:02;;;;;;;19.20;13.70;;;;;;;2.01;83.43;96194.03;4384971;32;20563;-76
2020/12/04 02:56:34;;;;;;;13.70;11.03;;;;;;;2.17;83.58;96189.28;4387143;32;20570;-76
2020/12/04 02:59:04;;;;;;;20.20;15.07;;;;;;;2.29;83.03;96177.91;4377663;32;20159;-76
2020/12/04 03:01:35;;;;;;;17.57;14.67;;;;;;;2.32;83.15;96185.50;4375212;32;20281;-75
2020/12/04 03:04:07;;;;;;;17.83;14.47;;;;;;;2.17;83.50;96184.06;4375148;32;20212;-74
2020/12/04 03:06:40;;;;;;;19.20;13.40;;;;;;;2.01;83.03;96178.41;4382481;32;20182;-75
2020/12/04 03:09:15;;;;;;;15.73;11.80;;;;;;;1.99;83.96;96180.31;4385266;32;20265;-73
2020/12/04 03:11:46;;;;;;;23.63;16.10;;;;;;;2.18;83.69;96175.31;4376792;32;20179;-74
2020/12/04 03:14:17;;;;;;;18.97;14.93;;;;;;;2.18;82.85;96170.13;4377589;32;20793;-75
2020/12/04 03:16:49;;;;;;;18.10;14.67;;;;;;;2.12;83.17;96167.97;4372297;32;20169;-76
2020/12/04 03:19:19;;;;;;;18.63;14.83;;;;;;;2.02;83.92;96162.66;4383922;32;20155;-76
2020/12/04 03:21:52;;;;;;;20.53;16.53;;;;;;;1.88;84.80;96169.91;4382573;32;20159;-75
2020/12/04 03:24:23;;;;;;;19.50;15.40;;;;;;;1.75;85.43;96175.22;4373214;32;20178;-75
2020/12/04 03:26:54;;;;;;;19.60;14.87;;;;;;;1.77;85.35;96171.53;4373623;32;20170;-76
2020/12/04 03:29:25;;;;;;;19.57;15.00;;;;;;;1.95;84.92;96179.72;4373935;32;20543;-75
2020/12/04 03:31:57;;;;;;;20.17;14.60;;;;;;;2.05;84.08;96170.22;4373697;32;20724;-76
2020/12/04 03:34:28;;;;;;;19.47;14.40;;;;;;;2.01;84.08;96175.81;4373446;32;20264;-75
2020/12/04 03:37:00;;;;;;;19.23;14.97;;;;;;;2.04;83.98;96184.22;4371777;32;20205;-76
2020/12/04 03:39:31;;;;;;;19.27;14.77;;;;;;;1.86;84.73;96176.97;4378011;32;20163;-76
2020/12/04 03:42:02;;;;;;;17.43;13.57;;;;;;;1.82;85.21;96188.59;4380317;32;20186;-76
2020/12/04 03:44:32;;;;;;;16.80;12.43;;;;;;;1.98;85.16;96195.09;4382062;32;20163;-76
2020/12/04 03:47:07;;;;;;;19.93;13.07;;;;;;;2.18;84.40;96196.16;4378989;32;20155;-76
2020/12/04 03:49:37;;;;;;;14.53;11.60;;;;;;;2.12;85.39;96212.25;4387054;32;20482;-75
2020/12/04 03:52:11;;;;;;;15.47;11.57;;;;;;;2.28;84.83;96217.94;4386369;32;20186;-75
2020/12/04 03:54:42;;;;;;;22.77;15.27;;;;;;;2.37;84.23;96232.84;4383152;32;20192;-76
2020/12/04 03:57:14;;;;;;;18.07;13.20;;;;;;;2.03;84.24;96228.59;4380389;32;20670;-76
2020/12/04 03:59:45;;;;;;;18.90;13.80;;;;;;;2.09;84.68;96225.53;4377930;32;20163;-75
2020/12/04 04:02:26;;;;;;;20.57;15.17;;;;;;;1.99;85.80;96220.22;4382523;32;20192;-75
2020/12/04 04:04:57;;;;;;;18.83;14.40;;;;;;;1.72;86.77;96204.91;4372171;32;20182;-75
2020/12/04 04:07:30;;;;;;;19.03;14.77;;;;;;;1.83;86.80;96185.88;4381186;32;20648;-75
2020/12/04 04:10:02;;;;;;;17.80;14.57;;;;;;;1.98;86.51;96192.50;4388444;32;20603;-75
2020/12/04 04:12:33;;;;;;;18.57;14.33;;;;;;;2.17;86.42;96202.31;4381458;32;20541;-75
2020/12/04 04:15:03;;;;;;;18.43;14.00;;;;;;;2.21;85.79;96191.56;4375755;32;20512;-74
2020/12/04 04:17:35;;;;;;;21.63;15.13;;;;;;;2.25;86.60;96181.69;4381716;32;20220;-75
2020/12/04 04:20:05;;;;;;;16.97;13.37;;;;;;;2.07;87.41;96176.19;4376666;32;20155;-74
2020/12/04 04:22:38;;;;;;;18.03;13.40;;;;;;;2.04;87.81;96186.00;4391278;32;20206;-74
2020/12/04 04:25:12;;;;;;;21.13;14.83;;;;;;;1.97;87.62;96187.41;4390396;32;20175;-74
2020/12/04 04:27:43;;;;;;;18.17;14.30;;;;;;;2.06;86.91;96176.28;4375634;32;20171;-74
2020/12/04 04:30:14;;;;;;;19.33;15.27;;;;;;;2.01;86.76;96179.25;4382273;32;20493;-75
2020/12/04 04:32:45;;;;;;;20.70;14.77;;;;;;;2.06;87.37;96181.47;4390810;32;20222;-75
2020/12/04 04:35:16;;;;;;;19.57;14.33;;;;;;;2.01;87.18;96194.03;4390448;32;20171;-74
2020/12/04 04:37:48;;;;;;;16.50;12.07;;;;;;;2.13;87.00;96187.88;4381664;32;20225;-75
2020/12/04 04:40:20;;;;;;;18.57;13.70;;;;;;;2.28;86.54;96187.50;4382071;32;20155;-74
2020/12/04 04:43:08;;;;;;;18.17;14.53;;;;;;;2.39;86.19;96188.44;4381434;32;20648;-75
2020/12/04 04:45:41;;;;;;;14.37;11.13;;;;;;;2.14;85.57;96185.16;4349642;32;20193;-75
2020/12/04 04:48:16;;;;;;;15.60;12.30;;;;;;;2.12;87.17;96207.06;4367133;32;20174;-75
2020/12/04 04:50:48;;;;;;;15.37;10.87;;;;;;;2.28;86.60;96223.13;4360646;32;20167;-74
2020/12/04 04:53:21;;;;;;;15.97;12.67;;;;;;;2.30;85.89;96234.28;4361991;32;20329;-74
2020/12/04 04:55:55;;;;;;;15.83;12.70;;;;;;;2.30;85.41;96236.91;4358768;32;20221;-76
2020/12/04 04:58:32;;;;;;;15.73;13.30;;;;;;;2.32;85.62;96235.00;4363781;32;20250;-75
2020/12/04 05:01:04;;;;;;;18.57;14.07;;;;;;;2.04;86.42;96230.25;4363227;32;20200;-74
2020/12/04 05:03:34;;;;;;;18.17;13.73;;;;;;;1.95;87.81;96226.59;4367484;32;20234;-74
2020/12/04 05:06:06;;;;;;;15.03;12.10;;;;;;;1.97;87.49;96229.06;4366104;32;20245;-73
2020/12/04 05:08:38;;;;;;;18.93;13.77;;;;;;;2.05;87.06;96214.50;4360024;32;20592;-73
2020/12/04 05:11:09;;;;;;;16.20;13.10;;;;;;;2.10;87.56;96235.00;4367681;32;20649;-75
2020/12/04 05:13:40;;;;;;;16.00;12.93;;;;;;;1.86;89.29;96218.63;4364851;32;20178;-75
2020/12/04 05:16:29;;;;;;;16.13;12.60;;;;;;;1.77;89.27;96185.53;4362650;32;20235;-74
2020/12/04 05:19:00;;;;;;;18.90;13.30;;;;;;;1.94;89.81;96203.28;4367105;32;20411;-75
2020/12/04 05:21:32;;;;;;;19.57;13.90;;;;;;;2.15;88.44;96186.81;4368142;32;20198;-73
2020/12/04 05:24:05;;;;;;;13.80;11.20;;;;;;;2.20;86.94;96173.41;4360430;32;20176;-75
2020/12/04 05:26:38;;;;;;;19.57;14.90;;;;;;;2.36;86.88;96184.28;4365157;32;20576;-75
2020/12/04 05:29:08;;;;;;;18.77;14.50;;;;;;;2.43;86.57;96182.87;4361068;32;20261;-74
2020/12/04 05:31:40;;;;;;;16.63;13.43;;;;;;;2.48;86.30;96172.91;4370052;32;20462;-75
2020/12/04 05:34:21;;;;;;;18.50;14.13;;;;;;;2.57;86.30;96166.94;4372516;32;20261;-74
2020/12/04 05:36:52;;;;;;;18.37;13.23;;;;;;;2.50;85.71;96159.75;4357386;32;20269;-75
2020/12/04 05:39:40;;;;;;;17.63;13.10;;;;;;;2.59;85.39;96159.84;4368184;32;20877;-75
2020/12/04 05:42:11;;;;;;;16.43;12.67;;;;;;;2.39;85.16;96152.78;4367996;32;20570;-75
2020/12/04 05:44:54;;;;;;;17.47;13.67;;;;;;;2.40;85.47;96149.22;4357873;32;20249;-74
2020/12/04 05:47:37;;;;;;;18.40;13.83;;;;;;;2.47;85.02;96139.16;4341837;32;20552;-73
2020/12/04 05:50:09;;;;;;;18.17;12.57;;;;;;;2.50;84.73;96134.50;4360033;32;20239;-74
2020/12/04 05:52:41;;;;;;;17.10;12.43;;;;;;;2.43;84.95;96145.56;4364821;32;20152;-73
2020/12/04 05:55:13;;;;;;;17.63;13.67;;;;;;;2.59;85.11;96159.00;4355681;32;20201;-75
2020/12/04 05:57:46;;;;;;;15.50;11.73;;;;;;;2.61;85.12;96160.53;4362069;32;20236;-74
2020/12/04 06:00:16;;;;;;;18.37;12.97;;;;;;;2.70;84.52;96158.97;4362062;32;20212;-75
2020/12/04 06:02:57;;;;;;;17.97;13.90;;;;;;;2.68;84.41;96153.88;4361264;32;20392;-74
2020/12/04 06:05:28;;;;;;;16.80;13.50;;;;;;;2.64;84.40;96162.88;4358949;32;20668;-74
2020/12/04 06:08:02;;;;;;;17.37;13.33;;;;;;;2.60;84.62;96151.06;4371365;32;20175;-74
2020/12/04 06:10:35;;;;;;;19.00;13.80;;;;;;;2.65;84.44;96148.09;4360493;32;20665;-73
2020/12/04 06:13:06;;;;;;;17.10;13.33;;;;;;;2.72;84.16;96141.44;4359382;32;20202;-74
2020/12/04 06:15:37;;;;;;;18.00;12.10;;;;;;;2.76;83.77;96135.84;4354663;32;20920;-74
2020/12/04 06:18:11;;;;;;;16.50;12.30;;;;;;;2.77;83.46;96131.47;4364324;32;20632;-74
2020/12/04 06:20:42;;;;;;;17.10;13.57;;;;;;;2.73;83.48;96123.06;4358351;32;20231;-75
2020/12/04 06:23:16;;;;;;;21.47;14.87;;;;;;;2.68;83.01;96114.78;4365264;32;20837;-74
2020/12/04 06:26:16;;;;;;;20.00;14.57;;;;;;;2.74;83.15;96096.03;4358794;32;20450;-74
2020/12/04 06:28:56;;;;;;;15.30;12.17;;;;;;;2.70;83.00;96094.62;4360115;32;20274;-74
2020/12/04 06:31:34;;;;;;;17.23;12.87;;;;;;;2.73;81.78;96110.00;4363166;32;20193;-74
2020/12/04 06:34:17;;;;;;;17.83;12.57;;;;;;;2.79;81.88;96119.13;4371275;32;20257;-74
2020/12/04 06:36:48;;;;;;;17.00;12.23;;;;;;;2.78;80.75;96123.50;4372874;32;20171;-73
2020/12/04 06:39:30;;;;;;;17.97;12.27;;;;;;;2.88;80.92;96123.59;4372070;32;20208;-73
2020/12/04 06:42:03;;;;;;;17.13;12.63;;;;;;;2.93;80.98;96137.91;4361780;32;20159;-74
2020/12/04 06:44:35;;;;;;;18.60;12.10;;;;;;;2.77;82.02;96116.66;4358052;32;20505;-73
2020/12/04 06:47:15;;;;;;;17.33;12.90;;;;;;;2.87;80.71;96122.75;4368133;32;20163;-74
2020/12/04 06:49:46;;;;;;;17.13;11.77;;;;;;;2.88;80.57;96129.63;4349156;32;21443;-74
2020/12/04 06:52:29;;;;;;;18.17;11.73;;;;;;;2.88;79.49;96118.38;4366627;32;20163;-73
2020/12/04 06:55:12;;;;;;;19.77;13.70;;;;;;;2.95;79.14;96105.66;4360213;32;20225;-73
2020/12/04 06:57:44;;;;;;;22.83;12.73;;;;;;;2.99;78.84;96109.66;4368980;32;20720;-73
2020/12/04 07:00:15;;;;;;;18.10;12.27;;;;;;;3.05;78.82;96109.16;4362621;32;20198;-73
2020/12/04 07:02:47;;;;;;;16.40;11.37;;;;;;;3.04;78.36;96107.50;4375184;32;20295;-73
2020/12/04 07:05:23;;;;;;;16.13;12.33;;;;;;;3.03;78.93;96101.47;4363295;32;20217;-73
2020/12/04 07:08:03;;;;;;;16.73;11.20;;;;;;;2.98;79.20;96114.03;4358341;32;20724;-74
2020/12/04 07:10:34;;;;;;;15.07;10.73;;;;;;;3.04;78.64;96112.69;4358230;32;20233;-73
2020/12/04 07:13:06;;;;;;;16.17;11.50;;;;;;;3.07;78.11;96149.81;4361756;32;20468;-74
2020/12/04 07:15:42;;;;;;;16.07;12.13;;;;;;;3.07;77.35;96144.59;4371804;32;20201;-74
2020/12/04 07:18:13;;;;;;;13.40;10.50;;;;;;;3.18;78.26;96138.47;4359833;32;20244;-73
2020/12/04 07:20:48;;;;;;;14.03;11.03;;;;;;;3.10;79.06;96139.13;4368916;32;20206;-73
2020/12/04 07:23:20;;;;;;;18.27;11.37;;;;;;;3.13;77.44;96138.03;4373437;32;21078;-73
2020/12/04 07:25:52;;;;;;;13.27;8.97;;;;;;;3.20;78.32;96128.75;4372470;32;20175;-73
2020/12/04 07:28:24;;;;;;;14.73;9.60;;;;;;;3.24;77.01;96124.94;4369882;32;20167;-73
2020/12/04 07:30:56;;;;;;;10.57;8.73;;;;;;;3.26;77.10;96128.22;4357310;32;20245;-73
2020/12/04 07:33:28;;;;;;;12.73;9.73;;;;;;;3.35;78.14;96122.25;4357303;32;20170;-73
2020/12/04 07:36:05;;;;;;;12.53;10.43;;;;;;;3.33;77.74;96118.94;4356129;32;20182;-73
2020/12/04 07:38:36;;;;;;;15.83;10.47;;;;;;;3.25;77.96;96117.00;4353660;32;20928;-73
2020/12/04 07:41:23;;;;;;;16.57;11.33;;;;;;;3.23;77.34;96118.06;4365046;32;20203;-73
2020/12/04 07:44:05;;;;;;;15.73;12.07;;;;;;;3.29;77.14;96123.59;4367231;32;20247;-74
2020/12/04 07:46:36;;;;;;;14.67;11.13;;;;;;;3.26;77.32;96129.06;4360097;32;20398;-73
2020/12/04 07:49:17;;;;;;;14.37;11.13;;;;;;;3.24;76.74;96130.13;4357641;32;20683;-73
2020/12/04 07:51:50;;;;;;;11.53;8.60;;;;;;;3.15;75.71;96123.06;4372614;32;20203;-73
2020/12/04 07:54:23;;;;;;;17.40;11.43;;;;;;;3.30;76.59;96119.19;4376061;32;20224;-73
2020/12/04 07:56:57;;;;;;;14.63;11.03;;;;;;;3.40;76.96;96115.69;4362943;32;20236;-73
2020/12/04 07:59:30;;;;;;;13.27;9.90;;;;;;;3.34;77.43;96097.13;4354798;32;20187;-73
2020/12/04 08:02:03;;;;;;;13.80;10.47;;;;;;;3.34;77.52;96097.13;4369927;32;20159;-73
2020/12/04 08:04:36;;;;;;;13.47;10.27;;;;;;;3.28;77.14;96100.25;4370853;32;20395;-73
2020/12/04 08:07:07;;;;;;;16.80;11.33;;;;;;;3.35;77.25;96107.41;4368168;32;20190;-73
2020/12/04 08:09:41;;;;;;;14.83;10.27;;;;;;;3.44;77.23;96111.03;4373737;32;20186;-73
2020/12/04 08:12:20;;;;;;;18.20;12.83;;;;;;;3.43;77.35;96101.53;4372030;32;20504;-73
2020/12/04 08:14:54;;;;;;;16.07;12.23;;;;;;;3.42;76.50;96102.53;4375527;32;20167;-74
2020/12/04 08:17:25;;;;;;;15.77;11.50;;;;;;;3.34;76.52;96118.00;4370229;32;20253;-74
2020/12/04 08:19:59;;;;;;;14.70;11.17;;;;;;;3.45;76.37;96107.47;4369091;32;20179;-73
2020/12/04 08:22:30;;;;;;;19.83;11.23;;;;;;;3.33;77.09;96087.62;4369130;32;20257;-73
2020/12/04 08:25:04;;;;;;;16.43;11.33;;;;;;;3.32;77.37;96078.97;4377543;32;20171;-73
2020/12/04 08:27:36;;;;;;;17.00;12.30;;;;;;;3.48;77.05;96102.00;4375886;32;20217;-74
2020/12/04 08:30:15;;;;;;;19.53;14.53;;;;;;;3.19;76.20;96075.75;4376836;32;20198;-73
2020/12/04 08:32:46;;;;;;;15.57;12.63;;;;;;;3.25;78.20;96092.66;4373930;32;20167;-73
2020/12/04 08:35:20;;;;;;;17.27;12.27;;;;;;;3.41;77.59;96085.19;4362944;32;20206;-73
2020/12/04 08:37:52;;;;;;;18.13;12.43;;;;;;;3.38;78.33;96061.97;4368567;32;20214;-73
2020/12/04 08:40:26;;;;;;;15.80;12.50;;;;;;;3.14;78.04;96035.34;4371929;32;20559;-73
2020/12/04 08:43:11;;;;;;;17.60;11.73;;;;;;;3.18;78.93;96026.28;4377018;32;20184;-73
2020/12/04 08:45:45;;;;;;;17.17;11.33;;;;;;;3.34;78.54;96042.31;4375833;32;20248;-73
2020/12/04 08:48:17;;;;;;;12.13;9.60;;;;;;;3.47;78.10;96048.13;4349890;32;20412;-73
2020/12/04 08:50:51;;;;;;;17.93;11.37;;;;;;;3.62;77.82;96041.59;4348420;32;20253;-73
2020/12/04 08:53:23;;;;;;;12.47;10.37;;;;;;;3.65;77.46;96041.31;4365916;32;20230;-73
2020/12/04 08:55:56;;;;;;;16.23;11.63;;;;;;;3.67;78.47;96055.09;4373602;32;20699;-74
2020/12/04 08:58:28;;;;;;;13.80;11.50;;;;;;;3.55;77.52;96050.91;4362767;32;20536;-74
2020/12/04 09:01:01;;;;;;;16.27;11.43;;;;;;;3.54;78.97;96046.66;4352653;32;20840;-73
2020/12/04 09:03:32;;;;;;;14.63;10.57;;;;;;;3.78;78.12;96052.37;4367978;32;20669;-73
2020/12/04 09:06:04;;;;;;;15.57;10.33;;;;;;;3.96;77.93;96053.37;4370628;32;20178;-74
2020/12/04 09:08:38;;;;;;;15.53;12.17;;;;;;;3.96;77.58;96050.75;4378737;32;20187;-73
2020/12/04 09:11:08;;;;;;;16.53;10.93;;;;;;;4.24;77.08;96053.59;4378565;32;20183;-73
2020/12/04 09:13:39;;;;;;;16.23;11.03;;;;;;;4.27;76.78;96048.06;4363246;32;20214;-74
2020/12/04 09:16:12;;;;;;;13.57;9.87;;;;;;;4.36;75.56;96047.25;4370430;32;20241;-73
2020/12/04 09:18:42;;;;;;;14.43;9.93;;;;;;;4.05;75.52;96047.34;4359830;32;20203;-73
2020/12/04 09:21:13;;;;;;;14.13;10.67;;;;;;;4.22;74.98;96050.25;4373814;32;20207;-74
2020/12/04 09:23:44;;;;;;;15.80;11.23;;;;;;;4.39;75.32;96049.59;4362883;32;20169;-73
2020/12/04 09:26:15;;;;;;;12.17;10.00;;;;;;;4.53;75.10;96064.88;4368777;32;20183;-74
2020/12/04 09:28:46;;;;;;;17.27;11.10;;;;;;;4.51;74.29;96093.78;4377071;32;20237;-73
2020/12/04 09:31:20;;;;;;;16.13;12.97;;;;;;;4.47;74.75;96102.84;4378272;32;20230;-73
2020/12/04 09:33:51;;;;;;;24.07;12.63;;;;;;;4.34;74.73;96101.44;4374781;32;20518;-74
2020/12/04 09:36:23;;;;;;;18.27;13.03;;;;;;;4.40;73.99;96103.53;4376701;32;20168;-73
2020/12/04 09:38:53;;;;;;;18.17;12.60;;;;;;;4.40;73.80;96093.06;4356556;32;20212;-73
2020/12/04 09:41:24;;;;;;;16.60;12.07;;;;;;;4.60;74.47;96086.91;4362444;32;20516;-73
2020/12/04 09:43:54;;;;;;;19.43;12.67;;;;;;;4.71;73.80;96078.94;4360520;32;20192;-74
2020/12/04 09:46:28;;;;;;;16.50;11.53;;;;;;;4.44;73.46;96061.28;4361455;32;20195;-73
2020/12/04 09:48:59;;;;;;;18.60;12.67;;;;;;;4.70;73.53;96061.56;4359448;32;20581;-73
2020/12/04 09:51:31;;;;;;;17.07;12.47;;;;;;;4.87;74.26;96066.09;4359036;32;20190;-73
2020/12/04 09:54:02;;;;;;;18.73;11.17;;;;;;;4.77;72.77;96064.47;4358967;32;20230;-73
2020/12/04 09:56:33;;;;;;;16.97;12.43;;;;;;;4.78;73.65;96053.84;4374729;32;20602;-73
2020/12/04 09:59:04;;;;;;;16.73;12.13;;;;;;;4.87;72.72;96055.66;4376142;32;20185;-74
2020/12/04 10:01:37;;;;;;;17.03;12.53;;;;;;;4.50;74.09;96049.47;4364600;32;20234;-73
2020/12/04 10:04:09;;;;;;;17.47;12.63;;;;;;;4.46;74.89;96038.44;4371020;32;20214;-73
2020/12/04 10:06:40;;;;;;;19.33;11.93;;;;;;;4.23;74.43;96042.31;4374286;32;20502;-74
2020/12/04 10:09:12;;;;;;;18.13;12.30;;;;;;;4.18;75.06;96020.16;4375563;32;20175;-73
2020/12/04 10:11:44;;;;;;;17.43;12.00;;;;;;;4.09;75.89;96030.47;4373749;32;20732;-73
2020/12/04 10:14:14;;;;;;;17.23;11.93;;;;;;;3.96;76.05;96021.19;4368880;32;20188;-73
2020/12/04 10:16:48;;;;;;;19.47;13.33;;;;;;;4.13;76.06;96020.53;4372677;32;20206;-73
2020/12/04 10:19:21;;;;;;;16.90;11.53;;;;;;;4.14;76.20;96037.03;4373835;32;20338;-73
2020/12/04 10:21:52;;;;;;;16.23;11.87;;;;;;;4.23;76.25;96041.47;4369951;32;20220;-74
2020/12/04 10:24:24;;;;;;;15.27;11.83;;;;;;;4.32;76.10;96040.66;4364050;32;20171;-74
2020/12/04 10:26:56;;;;;;;19.93;11.13;;;;;;;4.16;76.68;96042.94;4366862;32;20527;-73
2020/12/04 10:29:36;;;;;;;16.63;11.27;;;;;;;4.44;76.73;96070.91;4374563;32;20233;-73
2020/12/04 10:32:17;;;;;;;17.00;11.67;;;;;;;4.59;76.46;96080.84;4361942;32;20148;-74
2020/12/04 10:34:49;;;;;;;15.10;11.27;;;;;;;4.16;77.95;96064.69;4366068;32;20276;-73
2020/12/04 10:37:31;;;;;;;16.57;11.50;;;;;;;4.39;77.95;96101.88;4371993;32;20156;-74
2020/12/04 10:40:03;;;;;;;17.90;13.27;;;;;;;4.57;76.68;96108.09;4361255;32;20160;-73
2020/12/04 10:42:34;;;;;;;15.27;11.57;;;;;;;4.14;78.89;96079.69;4368123;32;20498;-73
2020/12/04 10:45:05;;;;;;;15.27;11.00;;;;;;;4.19;77.42;96067.03;4360894;32;20169;-73
2020/12/04 10:47:37;;;;;;;16.17;11.13;;;;;;;4.34;76.31;96080.53;4359760;32;20164;-74
2020/12/04 10:50:10;;;;;;;18.43;12.17;;;;;;;4.14;77.31;96076.25;4361941;32;20233;-74
2020/12/04 10:52:42;;;;;;;15.83;10.77;;;;;;;4.02;78.90;96076.34;4365266;32;20603;-73
2020/12/04 10:55:14;;;;;;;14.97;9.73;;;;;;;4.15;77.89;96075.28;4367160;32;20189;-73
2020/12/04 10:57:45;;;;;;;14.43;10.93;;;;;;;4.24;77.60;96080.50;4375517;32;20211;-74
2020/12/04 11:00:17;;;;;;;15.67;10.50;;;;;;;4.21;77.67;96085.22;4372617;32;20676;-73
2020/12/04 11:02:53;;;;;;;12.80;10.20;;;;;;;4.46;78.30;96084.69;4378551;32;20457;-73
2020/12/04 11:05:36;;;;;;;13.50;10.17;;;;;;;4.25;77.36;96087.41;4370829;32;20230;-73
2020/12/04 11:08:10;;;;;;;12.77;10.10;;;;;;;4.17;78.93;96060.28;4369647;32;20191;-73
2020/12/04 11:10:42;;;;;;;13.60;10.23;;;;;;;4.23;78.19;96047.53;4376190;32;20178;-73
2020/12/04 11:13:13;;;;;;;14.27;9.80;;;;;;;4.15;78.00;96007.34;4369967;32;20212;-73
2020/12/04 11:15:45;;;;;;;11.87;9.57;;;;;;;4.10;78.06;95990.28;4366462;32;20243;-73
2020/12/04 11:18:18;;;;;;;17.93;9.57;;;;;;;4.31;78.78;96002.41;4360180;32;20171;-74
2020/12/04 11:20:50;;;;;;;14.83;9.83;;;;;;;4.47;78.18;96034.03;4361037;32;20182;-73
2020/12/04 11:23:21;;;;;;;11.37;9.87;;;;;;;4.61;77.59;96060.59;4364404;32;20221;-74
2020/12/04 11:25:52;;;;;;;13.17;10.20;;;;;;;4.67;76.29;96072.31;4361281;32;20206;-73
2020/12/04 11:28:23;;;;;;;14.70;10.03;;;;;;;4.54;76.42;96030.75;4373166;32;20188;-73
2020/12/04 11:30:54;;;;;;;13.57;10.30;;;;;;;4.53;76.50;96012.59;4379978;32;20169;-73
2020/12/04 11:33:30;;;;;;;17.23;10.57;;;;;;;4.74;77.29;96042.03;4376657;32;20186;-73
2020/12/04 11:36:03;;;;;;;12.83;9.47;;;;;;;4.73;75.33;96019.44;4372914;32;20205;-73
2020/12/04 11:38:36;;;;;;;13.10;11.13;;;;;;;4.60;76.88;95985.72;4360445;32;20601;-74
2020/12/04 11:41:07;;;;;;;13.70;10.77;;;;;;;4.86;76.53;95996.44;4366728;32;20236;-72
2020/12/04 11:43:40;;;;;;;14.13;9.90;;;;;;;4.88;76.81;96012.00;4362985;32;20216;-73
2020/12/04 11:46:11;;;;;;;15.87;9.47;;;;;;;4.84;76.27;96016.69;4376449;32;20223;-75
2020/12/04 11:48:45;;;;;;;12.80;9.07;;;;;;;4.90;74.97;96031.81;4369368;32;20172;-73
2020/12/04 11:51:17;;;;;;;13.40;9.33;;;;;;;5.06;75.12;96029.44;4364050;32;20573;-74
2020/12/04 11:53:48;;;;;;;16.57;10.17;;;;;;;4.99;73.74;96017.91;4374591;32;20773;-75